createdAt,value
2022-12-12T00:00:41.993Z,94590.66
2022-12-12T00:03:08.727Z,94599.94
2022-12-12T00:05:35.434Z,94587.72
2022-12-12T00:08:02.094Z,94592.78
2022-12-12T00:10:28.656Z,94585.59
2022-12-12T00:12:55.338Z,94589.03
2022-12-12T00:15:21.919Z,94584.53
2022-12-12T00:17:48.378Z,94584.28
2022-12-12T00:20:14.989Z,94592.25
2022-12-12T00:22:41.525Z,94588.25
2022-12-12T00:25:08.716Z,94588.25
2022-12-12T00:27:35.255Z,94598.91
2022-12-12T00:30:02.158Z,94595.72
2022-12-12T00:32:28.695Z,94599.44
2022-12-12T00:34:55.200Z,94588.00
2022-12-12T00:37:21.700Z,94596.78
2022-12-12T00:39:48.272Z,94592.53
2022-12-12T00:42:14.961Z,94603.19
2022-12-12T00:44:41.453Z,94594.38
2022-12-12T00:47:08.087Z,94595.97
2022-12-12T00:49:34.691Z,94599.44
2022-12-12T00:52:01.338Z,94596.78
2022-12-12T00:54:28.135Z,94600.25
2022-12-12T00:56:54.637Z,94605.31
2022-12-12T00:59:21.270Z,94606.38
2022-12-12T01:01:47.825Z,94606.09
2022-12-12T01:04:14.953Z,94607.72
2022-12-12T01:06:41.489Z,94605.84
2022-12-12T01:09:08.037Z,94602.66
2022-12-12T01:11:34.789Z,94607.41
2022-12-12T01:14:01.656Z,94609.81
2022-12-12T01:16:29.401Z,94612.75
2022-12-12T01:18:56.129Z,94603.19
2022-12-12T01:21:23.363Z,94607.69
2022-12-12T01:23:49.997Z,94606.34
2022-12-12T01:26:20.311Z,94613.81
2022-12-12T01:28:46.865Z,94612.22
2022-12-12T01:31:14.066Z,94604.47
2022-12-12T01:33:42.177Z,94612.72
2022-12-12T01:36:08.631Z,94610.56
2022-12-12T01:38:35.134Z,94617.47
2022-12-12T01:41:01.720Z,94619.59
2022-12-12T01:43:28.716Z,94624.41
2022-12-12T01:45:55.810Z,94620.63
2022-12-12T01:48:25.799Z,94625.16
2022-12-12T01:50:53.320Z,94616.41
2022-12-12T01:53:20.918Z,94623.81
2022-12-12T01:55:49.380Z,94623.81
2022-12-12T01:58:16.982Z,94634.22
2022-12-12T02:00:43.917Z,94628.34
2022-12-12T02:03:10.745Z,94637.38
2022-12-12T02:05:41.725Z,94638.22
2022-12-12T02:08:10.408Z,94633.69
2022-12-12T02:10:37.489Z,94636.34
2022-12-12T02:13:11.706Z,94634.72
2022-12-12T02:16:10.076Z,94641.13
2022-12-12T02:18:44.630Z,94637.09
2022-12-12T02:21:23.046Z,94636.06
2022-12-12T02:24:13.608Z,94638.41
2022-12-12T02:27:04.163Z,94641.06
2022-12-12T02:30:07.673Z,94638.41
2022-12-12T02:32:52.430Z,94646.41
2022-12-12T02:35:43.387Z,94640.03
2022-12-12T02:38:27.775Z,94639.25
2022-12-12T02:41:21.165Z,94639.50
2022-12-12T02:43:54.787Z,94641.38
2022-12-12T02:46:31.755Z,94642.94
2022-12-12T02:49:32.939Z,94640.28
2022-12-12T02:52:01.108Z,94642.41
2022-12-12T02:54:28.175Z,94641.38
2022-12-12T02:56:58.159Z,94645.06
2022-12-12T02:59:40.023Z,94640.53
2022-12-12T03:02:22.668Z,94644.28
2022-12-12T03:04:57.748Z,94636.31
2022-12-12T03:07:52.797Z,94638.41
2022-12-12T03:10:28.216Z,94638.41
2022-12-12T03:13:25.843Z,94645.59
2022-12-12T03:16:05.601Z,94645.84
2022-12-12T03:18:35.073Z,94650.91
2022-12-12T03:21:08.168Z,94645.06
2022-12-12T03:23:39.891Z,94651.44
2022-12-12T03:26:19.431Z,94650.88
2022-12-12T03:28:54.532Z,94657.25
2022-12-12T03:31:26.233Z,94655.13
2022-12-12T03:34:19.495Z,94658.28
2022-12-12T03:36:54.346Z,94653.47
2022-12-12T03:39:27.069Z,94652.94
2022-12-12T03:42:19.335Z,94655.06
2022-12-12T03:44:55.468Z,94648.63
2022-12-12T03:47:30.005Z,94646.50
2022-12-12T03:50:09.557Z,94649.66
2022-12-12T03:52:52.949Z,94652.84
2022-12-12T03:55:26.727Z,94644.81
2022-12-12T03:58:08.520Z,94648.53
2022-12-12T04:00:37.782Z,94649.03
2022-12-12T04:03:18.192Z,94655.16
2022-12-12T04:06:07.675Z,94646.34
2022-12-12T04:08:35.084Z,94649.78
2022-12-12T04:11:07.902Z,94650.53
2022-12-12T04:13:59.187Z,94655.06
2022-12-12T04:16:33.171Z,94655.56
2022-12-12T04:19:11.896Z,94657.94
2022-12-12T04:21:53.514Z,94656.56
2022-12-12T04:24:25.706Z,94655.50
2022-12-12T04:27:02.241Z,94673.78
2022-12-12T04:29:38.813Z,94666.31
2022-12-12T04:32:27.135Z,94662.06
2022-12-12T04:35:05.470Z,94666.84
2022-12-12T04:37:36.071Z,94673.22
2022-12-12T04:40:07.369Z,94665.47
2022-12-12T04:42:40.933Z,94675.88
2022-12-12T04:45:20.372Z,94675.88
2022-12-12T04:47:50.088Z,94677.72
2022-12-12T04:50:19.276Z,94675.06
2022-12-12T04:52:48.796Z,94675.06
2022-12-12T04:55:31.252Z,94676.38
2022-12-12T04:57:58.036Z,94685.13
2022-12-12T05:00:30.082Z,94685.13
2022-12-12T05:03:21.216Z,94681.94
2022-12-12T05:05:53.793Z,94694.44
2022-12-12T05:08:31.012Z,94690.41
2022-12-12T05:11:01.370Z,94692.28
2022-12-12T05:13:32.950Z,94703.69
2022-12-12T05:16:02.070Z,94702.91
2022-12-12T05:18:28.565Z,94700.25
2022-12-12T05:20:55.048Z,94704.50
2022-12-12T05:23:21.702Z,94705.56
2022-12-12T05:25:48.216Z,94712.72
2022-12-12T05:28:14.866Z,94707.16
2022-12-12T05:30:41.399Z,94712.47
2022-12-12T05:33:08.145Z,94711.66
2022-12-12T05:35:34.694Z,94712.72
2022-12-12T05:38:01.816Z,94710.31
2022-12-12T05:40:28.493Z,94712.16
2022-12-12T05:42:54.961Z,94714.03
2022-12-12T05:45:21.549Z,94715.88
2022-12-12T05:47:48.042Z,94720.38
2022-12-12T05:50:14.791Z,94720.38
2022-12-12T05:52:41.295Z,94720.38
2022-12-12T05:55:07.973Z,94724.09
2022-12-12T05:57:34.582Z,94732.06
2022-12-12T06:00:01.141Z,94735.25
2022-12-12T06:02:27.708Z,94726.19
2022-12-12T06:04:54.213Z,94725.41
2022-12-12T06:07:20.682Z,94730.72
2022-12-12T06:09:47.271Z,94734.16
2022-12-12T06:12:13.805Z,94730.72
2022-12-12T06:14:40.304Z,94736.28
2022-12-12T06:17:06.821Z,94730.97
2022-12-12T06:19:33.531Z,94730.19
2022-12-12T06:22:00.917Z,94738.16
2022-12-12T06:24:27.429Z,94734.41
2022-12-12T06:26:53.991Z,94741.09
2022-12-12T06:29:20.642Z,94742.69
2022-12-12T06:31:47.182Z,94735.78
2022-12-12T06:34:13.659Z,94739.50
2022-12-12T06:36:40.208Z,94736.59
2022-12-12T06:39:07.158Z,94735.53
2022-12-12T06:41:33.751Z,94736.59
2022-12-12T06:44:00.644Z,94749.63
2022-12-12T06:46:29.079Z,94751.00
2022-12-12T06:48:56.663Z,94753.41
2022-12-12T06:51:28.949Z,94748.31
2022-12-12T06:53:56.084Z,94753.94
2022-12-12T06:56:24.494Z,94753.41
2022-12-12T06:58:51.578Z,94756.84
2022-12-12T07:01:20.319Z,94759.75
2022-12-12T07:03:48.315Z,94766.69
2022-12-12T07:06:15.528Z,94768.72
2022-12-12T07:08:42.033Z,94762.13
2022-12-12T07:11:13.442Z,94763.94
2022-12-12T07:13:40.139Z,94768.47
2022-12-12T07:16:07.528Z,94768.97
2022-12-12T07:18:34.341Z,94776.94
2022-12-12T07:21:04.866Z,94772.38
2022-12-12T07:23:31.715Z,94772.94
2022-12-12T07:25:58.849Z,94775.03
2022-12-12T07:28:25.405Z,94775.03
2022-12-12T07:30:51.964Z,94786.72
2022-12-12T07:33:18.535Z,94780.03
2022-12-12T07:35:45.204Z,94781.41
2022-12-12T07:38:12.218Z,94786.22
2022-12-12T07:40:39.305Z,94782.50
2022-12-12T07:43:05.783Z,94794.75
2022-12-12T07:45:32.587Z,94792.63
2022-12-12T07:47:59.156Z,94797.94
2022-12-12T07:50:25.703Z,94795.28
2022-12-12T07:52:52.182Z,94800.09
2022-12-12T07:55:18.671Z,94802.78
2022-12-12T07:57:45.346Z,94799.63
2022-12-12T08:00:12.668Z,94808.97
2022-12-12T08:02:39.658Z,94810.28
2022-12-12T08:05:06.673Z,94809.25
2022-12-12T08:07:33.667Z,94814.56
2022-12-12T08:10:00.399Z,94810.28
2022-12-12T08:12:29.719Z,94811.38
2022-12-12T08:14:56.330Z,94817.47
2022-12-12T08:17:23.150Z,94816.94
2022-12-12T08:19:49.734Z,94822.25
2022-12-12T08:22:16.214Z,94828.34
2022-12-12T08:24:42.784Z,94826.97
2022-12-12T08:27:15.160Z,94824.81
2022-12-12T08:29:43.357Z,94825.66
2022-12-12T08:32:09.997Z,94830.97
2022-12-12T08:34:38.958Z,94833.03
2022-12-12T08:37:05.554Z,94825.88
2022-12-12T08:39:32.020Z,94833.03
2022-12-12T08:41:58.496Z,94836.75
2022-12-12T08:44:25.124Z,94836.75
2022-12-12T08:46:51.764Z,94839.41
2022-12-12T08:49:18.483Z,94839.19
2022-12-12T08:51:45.044Z,94840.75
2022-12-12T08:54:13.131Z,94839.72
2022-12-12T08:56:40.623Z,94843.75
2022-12-12T08:59:07.249Z,94842.69
2022-12-12T09:01:33.862Z,94843.81
2022-12-12T09:04:01.773Z,94854.19
2022-12-12T09:06:28.482Z,94862.47
2022-12-12T09:08:56.598Z,94865.41
2022-12-12T09:11:23.547Z,94870.25
2022-12-12T09:13:51.387Z,94866.06
2022-12-12T09:16:18.840Z,94871.13
2022-12-12T09:18:49.075Z,94866.09
2022-12-12T09:21:16.479Z,94863.75
2022-12-12T09:23:42.975Z,94859.78
2022-12-12T09:26:10.815Z,94859.84
2022-12-12T09:28:37.877Z,94859.09
2022-12-12T09:31:08.852Z,94870.03
2022-12-12T09:33:35.807Z,94859.97
2022-12-12T09:36:04.814Z,94861.63
2022-12-12T09:38:31.583Z,94867.78
2022-12-12T09:41:02.109Z,94858.50
2022-12-12T09:43:39.072Z,94865.75
2022-12-12T09:46:15.999Z,94865.00
2022-12-12T09:48:45.894Z,94856.50
2022-12-12T09:51:13.630Z,94861.03
2022-12-12T09:53:44.037Z,94860.28
2022-12-12T09:56:56.572Z,94865.38
2022-12-12T09:59:32.295Z,94864.63
2022-12-12T10:02:20.391Z,94859.88
2022-12-12T10:05:07.763Z,94859.06
2022-12-12T10:07:58.175Z,94855.91
2022-12-12T10:10:33.749Z,94855.16
2022-12-12T10:13:02.696Z,94848.28
2022-12-12T10:15:40.175Z,94849.63
2022-12-12T10:18:12.679Z,94856.03
2022-12-12T10:20:48.318Z,94849.41
2022-12-12T10:23:37.203Z,94849.97
2022-12-12T10:26:07.216Z,94851.06
2022-12-12T10:28:35.560Z,94853.22
2022-12-12T10:31:39.625Z,94853.50
2022-12-12T10:34:31.621Z,94853.78
2022-12-12T10:37:25.676Z,94849.25
2022-12-12T10:40:01.147Z,94856.47
2022-12-12T10:42:39.675Z,94852.00
2022-12-12T10:45:24.047Z,94846.69
2022-12-12T10:47:51.034Z,94845.97
2022-12-12T10:50:31.458Z,94841.72
2022-12-12T10:52:57.937Z,94844.16
2022-12-12T10:55:37.201Z,94839.66
2022-12-12T10:58:04.998Z,94832.22
2022-12-12T11:00:38.531Z,94833.59
2022-12-12T11:03:23.633Z,94836.81
2022-12-12T11:05:50.837Z,94842.72
2022-12-12T11:08:32.189Z,94846.22
2022-12-12T11:11:00.198Z,94840.91
2022-12-12T11:13:27.049Z,94837.41
2022-12-12T11:15:57.907Z,94846.78
2022-12-12T11:18:25.545Z,94850.56
2022-12-12T11:21:08.585Z,94842.56
2022-12-12T11:23:39.847Z,94835.91
2022-12-12T11:26:13.810Z,94833.75
2022-12-12T11:28:42.158Z,94834.81
2022-12-12T11:31:11.785Z,94835.38
2022-12-12T11:33:45.990Z,94836.44
2022-12-12T11:36:19.105Z,94831.63
2022-12-12T11:38:49.246Z,94834.88
2022-12-12T11:41:15.945Z,94834.34
2022-12-12T11:43:45.427Z,94833.78
2022-12-12T11:46:15.002Z,94829.81
2022-12-12T11:48:55.352Z,94826.06
2022-12-12T11:51:41.571Z,94824.72
2022-12-12T11:54:14.359Z,94829.28
2022-12-12T11:56:50.073Z,94830.06
2022-12-12T11:59:40.638Z,94824.72
2022-12-12T12:02:37.583Z,94817.81
2022-12-12T12:05:22.676Z,94823.69
2022-12-12T12:08:09.850Z,94818.34
2022-12-12T12:11:07.239Z,94816.19
2022-12-12T12:13:39.982Z,94813.00
2022-12-12T12:16:37.805Z,94810.34
2022-12-12T12:19:33.369Z,94811.69
2022-12-12T12:22:18.666Z,94798.59
2022-12-12T12:24:53.148Z,94803.69
2022-12-12T12:27:24.911Z,94799.69
2022-12-12T12:29:57.319Z,94807.44
2022-12-12T12:32:49.941Z,94807.69
2022-12-12T12:35:27.780Z,94807.69
2022-12-12T12:37:54.222Z,94807.41
2022-12-12T12:40:52.233Z,94811.94
2022-12-12T12:43:24.842Z,94807.97
2022-12-12T12:46:11.686Z,94811.41
2022-12-12T12:48:43.553Z,94819.97
2022-12-12T12:51:26.899Z,94818.38
2022-12-12T12:54:04.843Z,94813.81
2022-12-12T12:56:33.940Z,94815.19
2022-12-12T12:59:09.318Z,94806.91
2022-12-12T13:01:43.327Z,94816.53
2022-12-12T13:04:20.211Z,94811.72
2022-12-12T13:06:52.582Z,94809.56
2022-12-12T13:09:29.786Z,94806.09
2022-12-12T13:12:29.253Z,94808.22
2022-12-12T13:15:02.856Z,94809.84
2022-12-12T13:18:10.486Z,94810.88
2022-12-12T13:20:49.987Z,94806.38
2022-12-12T13:23:30.868Z,94804.22
2022-12-12T13:26:12.944Z,94806.91
2022-12-12T13:28:46.102Z,94813.03
2022-12-12T13:31:21.561Z,94807.69
2022-12-12T13:33:53.527Z,94821.03
2022-12-12T13:36:30.027Z,94814.91
2022-12-12T13:39:00.859Z,94828.53
2022-12-12T13:41:27.440Z,94823.72
2022-12-12T13:44:00.019Z,94823.44
2022-12-12T13:46:26.609Z,94825.31
2022-12-12T13:49:14.256Z,94823.97
2022-12-12T13:51:42.955Z,94823.19
2022-12-12T13:54:13.167Z,94826.13
2022-12-12T13:56:44.829Z,94825.56
2022-12-12T13:59:23.366Z,94830.38
2022-12-12T14:01:58.882Z,94829.31
2022-12-12T14:04:42.881Z,94840.25
2022-12-12T14:07:12.513Z,94833.03
2022-12-12T14:09:48.747Z,94826.88
2022-12-12T14:12:21.386Z,94829.00
2022-12-12T14:15:05.204Z,94831.94
2022-12-12T14:17:41.840Z,94824.19
2022-12-12T14:20:25.174Z,94826.59
2022-12-12T14:22:51.610Z,94824.47
2022-12-12T14:25:33.317Z,94827.13
2022-12-12T14:28:02.685Z,94826.81
2022-12-12T14:30:44.991Z,94839.09
2022-12-12T14:33:17.236Z,94837.75
2022-12-12T14:35:43.664Z,94838.00
2022-12-12T14:38:41.390Z,94834.53
2022-12-12T14:41:19.316Z,94834.00
2022-12-12T14:44:35.428Z,94836.91
2022-12-12T14:46:42.434Z,94834.78
2022-12-12T14:49:17.483Z,94837.72
2022-12-12T14:51:46.799Z,94851.56
2022-12-12T14:54:19.068Z,94850.47
2022-12-12T14:56:53.033Z,94861.13
2022-12-12T14:59:29.714Z,94851.25
2022-12-12T15:02:23.499Z,94841.63
2022-12-12T15:05:04.206Z,94844.25
2022-12-12T15:07:34.445Z,94841.59
2022-12-12T15:10:01.497Z,94839.69
2022-12-12T15:12:42.734Z,94829.53
2022-12-12T15:15:26.571Z,94823.63
2022-12-12T15:17:55.554Z,94824.38
2022-12-12T15:20:25.848Z,94820.59
2022-12-12T15:22:58.059Z,94814.72
2022-12-12T15:25:31.331Z,94817.84
2022-12-12T15:27:58.909Z,94825.25
2022-12-12T15:30:38.853Z,94827.34
2022-12-12T15:33:08.324Z,94832.34
2022-12-12T15:35:34.962Z,94827.22
2022-12-12T15:38:04.295Z,94828.25
2022-12-12T15:40:32.290Z,94834.84
2022-12-12T15:42:59.929Z,94840.34
2022-12-12T15:45:34.901Z,94837.34
2022-12-12T15:48:02.929Z,94838.94
2022-12-12T15:50:42.161Z,94842.59
2022-12-12T15:53:29.756Z,94834.53
2022-12-12T15:56:00.575Z,94835.53
2022-12-12T15:59:07.568Z,94838.66
2022-12-12T16:01:34.197Z,94836.72
2022-12-12T16:04:01.907Z,94843.03
2022-12-12T16:06:34.009Z,94842.41
2022-12-12T16:09:02.327Z,94845.03
2022-12-12T16:11:46.056Z,94848.69
2022-12-12T16:14:39.089Z,94848.31
2022-12-12T16:17:21.173Z,94839.72
2022-12-12T16:20:06.888Z,94841.53
2022-12-12T16:22:37.116Z,94846.22
2022-12-12T16:25:15.666Z,94848.81
2022-12-12T16:27:42.326Z,94852.19
2022-12-12T16:30:12.693Z,94852.94
2022-12-12T16:32:40.052Z,94858.97
2022-12-12T16:35:06.814Z,94855.19
2022-12-12T16:37:33.669Z,94857.00
2022-12-12T16:40:00.215Z,94854.28
2022-12-12T16:42:28.389Z,94862.97
2022-12-12T16:44:54.854Z,94873.78
2022-12-12T16:47:23.979Z,94878.97
2022-12-12T16:49:51.134Z,94869.91
2022-12-12T16:52:20.634Z,94863.16
2022-12-12T16:54:53.060Z,94862.84
2022-12-12T16:57:21.650Z,94865.41
2022-12-12T16:59:48.124Z,94860.50
2022-12-12T17:02:23.146Z,94864.22
2022-12-12T17:04:50.919Z,94863.06
2022-12-12T17:07:18.162Z,94858.97
2022-12-12T17:09:44.793Z,94864.44
2022-12-12T17:12:11.316Z,94861.69
2022-12-12T17:14:37.869Z,94873.28
2022-12-12T17:17:05.031Z,94876.63
2022-12-12T17:19:31.964Z,94874.13
2022-12-12T17:21:58.529Z,94876.44
2022-12-12T17:24:25.252Z,94879.84
2022-12-12T17:26:51.955Z,94873.94
2022-12-12T17:29:18.523Z,94871.75
2022-12-12T17:31:45.018Z,94872.22
2022-12-12T17:34:11.575Z,94867.16
2022-12-12T17:36:38.434Z,94861.31
2022-12-12T17:39:05.367Z,94859.94
2022-12-12T17:41:31.828Z,94875.28
2022-12-12T17:43:58.337Z,94877.94
2022-12-12T17:46:25.837Z,94876.56
2022-12-12T17:48:52.481Z,94885.78
2022-12-12T17:51:21.656Z,94885.00
2022-12-12T17:53:48.265Z,94882.81
2022-12-12T17:56:16.902Z,94881.19
2022-12-12T17:58:45.248Z,94871.84
2022-12-12T18:01:18.662Z,94873.94
2022-12-12T18:03:45.598Z,94873.16
2022-12-12T18:06:13.719Z,94876.84
2022-12-12T18:08:41.124Z,94871.75
2022-12-12T18:11:10.014Z,94871.22
2022-12-12T18:13:37.334Z,94866.94
2022-12-12T18:16:04.624Z,94862.69
2022-12-12T18:18:31.802Z,94863.72
2022-12-12T18:21:06.548Z,94863.16
2022-12-12T18:23:34.094Z,94865.81
2022-12-12T18:26:06.422Z,94860.16
2022-12-12T18:28:33.738Z,94865.69
2022-12-12T18:31:00.468Z,94865.38
2022-12-12T18:33:27.053Z,94866.06
2022-12-12T18:36:01.058Z,94874.47
2022-12-12T18:38:27.562Z,94865.97
2022-12-12T18:40:54.209Z,94874.38
2022-12-12T18:43:20.763Z,94873.81
2022-12-12T18:45:47.324Z,94876.94
2022-12-12T18:48:13.923Z,94879.81
2022-12-12T18:50:40.466Z,94879.03
2022-12-12T18:53:06.990Z,94881.91
2022-12-12T18:55:33.487Z,94885.03
2022-12-12T18:57:59.983Z,94891.34
2022-12-12T19:00:27.186Z,94876.72
2022-12-12T19:02:56.177Z,94874.28
2022-12-12T19:05:22.796Z,94873.72
2022-12-12T19:07:49.351Z,94877.41
2022-12-12T19:10:16.574Z,94892.50
2022-12-12T19:12:43.224Z,94884.78
2022-12-12T19:15:18.158Z,94881.34
2022-12-12T19:17:44.838Z,94881.56
2022-12-12T19:20:11.652Z,94882.84
2022-12-12T19:22:46.645Z,94878.81
2022-12-12T19:25:15.180Z,94876.88
2022-12-12T19:27:41.943Z,94883.19
2022-12-12T19:30:09.688Z,94880.44
2022-12-12T19:32:36.352Z,94881.69
2022-12-12T19:35:02.933Z,94884.56
2022-12-12T19:37:29.642Z,94879.75
2022-12-12T19:39:56.116Z,94880.19
2022-12-12T19:42:23.002Z,94878.00
2022-12-12T19:44:49.523Z,94880.91
2022-12-12T19:47:16.029Z,94876.09
2022-12-12T19:49:42.536Z,94869.19
2022-12-12T19:52:13.861Z,94880.00
2022-12-12T19:54:41.045Z,94866.19
2022-12-12T19:57:07.586Z,94861.13
2022-12-12T19:59:34.047Z,94869.28
2022-12-12T20:02:00.519Z,94861.00
2022-12-12T20:04:26.974Z,94868.34
2022-12-12T20:06:53.437Z,94868.59
2022-12-12T20:09:22.885Z,94861.94
2022-12-12T20:11:50.448Z,94866.84
2022-12-12T20:14:22.290Z,94874.78
2022-12-12T20:16:49.275Z,94866.28
2022-12-12T20:19:16.842Z,94869.97
2022-12-12T20:22:02.037Z,94868.38
2022-12-12T20:24:29.823Z,94861.47
2022-12-12T20:26:56.697Z,94862.47
2022-12-12T20:29:23.183Z,94862.72
2022-12-12T20:31:49.809Z,94865.34
2022-12-12T20:34:18.283Z,94864.78
2022-12-12T20:36:45.253Z,94863.19
2022-12-12T20:39:14.901Z,94859.72
2022-12-12T20:41:42.550Z,94853.63
2022-12-12T20:44:10.635Z,94859.16
2022-12-12T20:46:39.648Z,94851.44
2022-12-12T20:49:09.273Z,94854.31
2022-12-12T20:54:23.947Z,94853.75
2022-12-12T20:56:50.949Z,94853.97
2022-12-12T20:59:17.448Z,94851.09
2022-12-12T21:01:44.005Z,94853.97
2022-12-12T21:04:10.628Z,94850.75
2022-12-12T21:06:40.255Z,94856.03
2022-12-12T21:09:10.135Z,94859.50
2022-12-12T21:11:38.138Z,94855.47
2022-12-12T21:14:04.755Z,94855.34
2022-12-12T21:16:34.183Z,94855.13
2022-12-12T21:19:05.691Z,94843.97
2022-12-12T21:21:32.544Z,94849.25
2022-12-12T21:23:59.770Z,94851.31
2022-12-12T21:26:29.548Z,94853.38
2022-12-12T21:28:57.305Z,94849.13
2022-12-12T21:31:25.470Z,94856.94
2022-12-12T21:33:52.419Z,94853.03
2022-12-12T21:36:21.312Z,94856.72
2022-12-12T21:38:48.609Z,94850.03
2022-12-12T21:41:18.870Z,94843.38
2022-12-12T21:43:45.834Z,94844.63
2022-12-12T21:46:24.285Z,94845.06
2022-12-12T21:48:51.950Z,94848.75
2022-12-12T21:51:18.450Z,94842.88
2022-12-12T21:53:45.177Z,94842.31
2022-12-12T21:56:16.697Z,94843.56
2022-12-12T21:58:45.685Z,94841.75
2022-12-12T22:01:14.812Z,94838.50
2022-12-12T22:03:42.061Z,94848.50
2022-12-12T22:06:14.530Z,94841.03
2022-12-12T22:08:41.905Z,94834.16
2022-12-12T22:11:09.549Z,94831.72
2022-12-12T22:13:40.129Z,94834.22
2022-12-12T22:16:18.539Z,94841.91
2022-12-12T22:18:50.042Z,94841.34
2022-12-12T22:21:20.454Z,94842.38
2022-12-12T22:23:49.104Z,94843.41
2022-12-12T22:26:18.780Z,94845.94
2022-12-12T22:28:45.252Z,94846.16
2022-12-12T22:31:11.807Z,94841.56
2022-12-12T22:33:38.475Z,94847.28
2022-12-12T22:36:07.309Z,94846.91
2022-12-12T22:38:37.979Z,94841.84
2022-12-12T22:41:06.869Z,94837.25
2022-12-12T22:43:35.351Z,94828.16
2022-12-12T22:46:07.202Z,94832.03
2022-12-12T22:48:34.769Z,94826.19
2022-12-12T22:51:22.601Z,94825.25
2022-12-12T22:53:49.211Z,94827.53
2022-12-12T22:56:16.468Z,94819.03
2022-12-12T22:58:43.036Z,94826.38
2022-12-12T23:01:12.902Z,94822.34
2022-12-12T23:03:39.599Z,94822.56
2022-12-12T23:06:14.917Z,94809.22
2022-12-12T23:08:43.053Z,94810.84
2022-12-12T23:11:14.963Z,94811.31
2022-12-12T23:13:43.033Z,94820.25
2022-12-12T23:16:12.213Z,94815.44
2022-12-12T23:18:40.502Z,94813.00
2022-12-12T23:21:16.329Z,94811.81
2022-12-12T23:23:43.797Z,94816.31
2022-12-12T23:26:13.564Z,94801.97
2022-12-12T23:28:40.346Z,94809.50
2022-12-12T23:31:09.153Z,94812.34
2022-12-12T23:33:36.352Z,94804.44
2022-12-12T23:36:03.540Z,94809.13
2022-12-12T23:38:30.102Z,94807.53
2022-12-12T23:40:56.612Z,94812.00
2022-12-12T23:43:24.695Z,94804.09
2022-12-12T23:45:51.271Z,94790.09
2022-12-12T23:48:17.816Z,94790.88
2022-12-12T23:50:44.286Z,94790.88
2022-12-12T23:53:11.845Z,94784.81
2022-12-12T23:55:38.381Z,94786.41
2022-12-12T23:58:05.028Z,94786.41
